Home > Products > Valid Products > TAF

000
FTUS44 KLCH 221100
TAFLCH
TAF
KLCH 221131Z 2212/2312 VRB03KT P6SM FEW200
     FM221500 19007KT P6SM SCT035 SCT220
      TEMPO 2218/2221 4SM TSRA SCT035 BKN050CB
     FM222100 VRB03KT P6SM FEW060 OVC250=



000
FTUS44 KLCH 221100
TAFARA
TAF
KARA 221131Z 2212/2312 VRB03KT P6SM FEW200
     FM221500 19005KT P6SM VCSH FEW050 SCT200
      TEMPO 2218/2222 P6SM TSRA SCT035CB BKN050CB
     FM222300 22002KT P6SM SCT250=



000
FTUS44 KLCH 221100
TAFAEX
TAF
KAEX 221131Z 2212/2312 VRB03KT P6SM FEW200
     FM221400 22005KT P6SM FEW030 FEW050 SCT200
      TEMPO 2219/2222 4SM TSRA SCT035 BKN050CB
     FM222300 VRB03KT P6SM FEW060 OVC250=



000
FTUS44 KLCH 221100
TAFLFT
TAF
KLFT 221131Z 2212/2312 VRB03KT P6SM FEW200
     FM221500 20005KT P6SM VCSH FEW030 FEW050 SCT200
      TEMPO 2218/2222 P6SM TSRA SCT035CB BKN050CB
     FM222300 22002KT P6SM SCT250=



000
FTUS44 KLCH 221100
TAFBPT
TAF
KBPT 221131Z 2212/2312 VRB04KT P6SM FEW200
     FM221500 19008KT P6SM SCT035 SCT220=



000
FTUS44 KLCH 220500
TAFBPT
TAF
KBPT 220520Z 2206/2306 VRB04KT P6SM FEW200
     FM221500 19008KT P6SM SCT035 SCT220=



000
FTUS44 KLCH 220500
TAFARA
TAF
KARA 220520Z 2206/2306 VRB03KT P6SM FEW200
     FM221500 19005KT P6SM VCSH FEW050 SCT200=



000
FTUS44 KLCH 220500
TAFLCH
TAF
KLCH 220520Z 2206/2306 VRB03KT P6SM FEW200
     FM221500 19007KT P6SM SCT035 SCT220=



000
FTUS44 KLCH 220500
TAFLFT
TAF
KLFT 220520Z 2206/2306 VRB03KT P6SM FEW200
     FM221500 20005KT P6SM VCSH FEW050 SCT200=



000
FTUS44 KLCH 220500
TAFAEX
TAF
KAEX 220520Z 2206/2306 VRB03KT P6SM FEW200
     FM221400 22005KT P6SM FEW050 SCT200=



000
FTUS44 KLCH 212300
TAFAEX
TAF
KAEX 212320Z 2200/2224 15008KT P6SM -RA FEW040 BKN100
     FM220200 18003KT P6SM BKN200
     FM221400 22005KT P6SM FEW050 SCT200=



000
FTUS44 KLCH 212300
TAFLFT
TAF
KLFT 212320Z 2200/2224 VRB03KT P6SM -RA FEW050 SCT100
     FM220200 00000KT P6SM BKN200
     FM221500 VRB05KT P6SM VCSH FEW050 SCT200=



000
FTUS44 KLCH 212300
TAFLCH
TAF
KLCH 212320Z 2200/2224 19003KT P6SM SCT220
     FM221500 19007KT P6SM SCT035 SCT220=



000
FTUS44 KLCH 212300
TAFARA
TAF
KARA 212320Z 2200/2224 VRB03KT P6SM SCT250
     FM220200 00000KT P6SM BKN200
     FM221500 VRB05KT P6SM VCSH FEW050 SCT200=



000
FTUS44 KLCH 212300
TAFBPT
TAF
KBPT 212320Z 2200/2224 19004KT P6SM FEW250
     FM221500 19008KT P6SM SCT035 SCT220=



000
FTUS44 KLCH 212000 AAC
TAFAEX
TAF AMD
KAEX 212045Z 2121/2218 VRB06KT P6SM VCTS SCT035CB SCT110 BKN200
     FM220000 VRB03KT P6SM SCT200
     FM220600 20003KT 3SM BR BKN200
     FM221400 VRB04KT P6SM SCT200=



000
FTUS44 KLCH 212000 AAB
TAFAEX
TAF AMD
KAEX 212027Z 2120/2218 VRB06KT P6SM VCTS SCT035CB BKN200
      TEMPO 2120/2122 VRB15G30KT 1SM +TSRA BKN030CB
     FM220000 VRB03KT P6SM SCT200
     FM220600 20003KT 3SM BR BKN200
     FM221400 VRB04KT P6SM SCT200=



000
FTUS44 KLCH 211900 AAA
TAFAEX
TAF AMD
KAEX 211924Z 2119/2218 VRB06KT P6SM VCTS SCT035CB BKN200
      TEMPO 2119/2120 VRB15G25KT 3SM -TSRA BKN030CB
     FM220000 VRB03KT P6SM SCT200
     FM220600 20003KT 3SM BR BKN200
     FM221400 VRB04KT P6SM SCT200=



000
FTUS44 KLCH 211800 AAA
TAFARA
TAF AMD
KARA 211854Z 2119/2218 19005KT P6SM VCTS BKN035CB BKN200
     FM220100 20003KT P6SM SCT250
     FM221400 VRB03KT P6SM SCT035 BKN150=



000
FTUS44 KLCH 211800 AAA
TAFLFT
TAF AMD
KLFT 211851Z 2119/2218 21009KT P6SM VCTS BKN040CB BKN070 BKN200
     FM220100 20003KT P6SM SCT250
     FM221400 VRB03KT P6SM SCT035 BKN150=



000
FTUS44 KLCH 211700
TAFAEX
TAF
KAEX 211739Z 2118/2218 20007KT P6SM VCTS SCT030CB BKN200
     FM220000 VRB03KT P6SM SCT200
     FM220600 20003KT 3SM BR BKN200
     FM221400 VRB04KT P6SM SCT200=



000
FTUS44 KLCH 211700
TAFLFT
TAF
KLFT 211739Z 2118/2218 19006KT P6SM VCTS SCT030CB SCT200
      TEMPO 2118/2121 VRB15G25KT 1SM +TSRA BKN030CB
     FM220100 20003KT P6SM SCT250
     FM221400 VRB03KT P6SM SCT035 BKN150=



000
FTUS44 KLCH 211700
TAFBPT
TAF
KBPT 211739Z 2118/2218 19010KT P6SM SCT040 SCT220
     FM212300 18004KT P6SM SCT220
     FM220800 18003KT P6SM BKN040 BKN220
     FM221400 18005KT P6SM SCT035 SCT220=



000
FTUS44 KLCH 211700
TAFLCH
TAF
KLCH 211739Z 2118/2218 21010KT P6SM SCT030 SCT220
     FM212300 19003KT P6SM SCT220
     FM220800 00000KT 3SM BR BKN040 BKN200
     FM221400 19005KT P6SM SCT035 SCT220=



000
FTUS44 KLCH 211700
TAFARA
TAF
KARA 211739Z 2118/2218 18007KT P6SM VCTS SCT030CB SCT200
      TEMPO 2118/2121 VRB15G25KT 1SM +TSRA BKN030CB
     FM220100 20003KT P6SM SCT250
     FM221400 VRB03KT P6SM SCT035 BKN150=



000
FTUS44 KLCH 211700 AAA
TAFLFT
TAF AMD
KLFT 211718Z 2117/2212 19006KT P6SM VCTS BKN027CB BKN250
     FM211900 20005KT P6SM VCTS SCT027CB SCT250
     FM220000 VRB03KT P6SM SCT250=



000
FTUS44 KLCH 211600 AAA
TAFBPT
TAF AMD
KBPT 211608Z 2116/2212 18008KT P6SM SCT030 SCT200
     FM220100 18004KT P6SM BKN250=



000
FTUS44 KLCH 211127
TAFLFT
TAF
KLFT 211127Z 2112/2212 VRB03KT P6SM SCT250
     FM211500 19006KT P6SM VCTS SCT030CB SCT200
     FM220100 20003KT P6SM SCT250=



000
FTUS44 KLCH 211127
TAFLCH
TAF
KLCH 211127Z 2112/2212 VRB05KT P6SM VCSH SCT025 BKN060 BKN250
     FM211500 17008KT P6SM VCTS SCT030CB SCT200
     FM220100 18004KT P6SM BKN250=



000
FTUS44 KLCH 211127
TAFAEX
TAF
KAEX 211127Z 2112/2212 17003KT P6SM SCT250
      TEMPO 2112/2114 4SM BR
     FM211800 17008KT P6SM VCTS SCT040CB SCT200
     FM220200 16003KT P6SM FEW250=



000
FTUS44 KLCH 211127
TAFARA
TAF
KARA 211127Z 2112/2212 VRB03KT P6SM SCT250
     FM211500 18007KT P6SM VCTS SCT030CB SCT200
     FM220100 20003KT P6SM SCT250=



000
FTUS44 KLCH 211127
TAFBPT
TAF
KBPT 211127Z 2112/2212 17003KT P6SM SCT250
     FM211500 18008KT P6SM VCTS SCT030CB SCT200
     FM220100 18004KT P6SM BKN250=



000
FTUS44 KLCH 210900 AAC
TAFLCH
TAF AMD
KLCH 210918Z 2109/2206 VRB05KT P6SM VCSH SCT025 BKN060 BKN250
      TEMPO 2109/2111 3SM TSRA FEW014 BKN025CB OVC060
     FM211500 17008KT P6SM VCTS SCT030CB SCT200
     FM220100 18004KT P6SM BKN250=



000
FTUS44 KLCH 210800 AAB
TAFLCH
TAF AMD
KLCH 210847Z 2109/2206 VRB05KT P6SM VCSH SCT020 SCT060 SCT250
      TEMPO 2109/2111 3SM TSRA BKN025CB OVC060
     FM211500 17008KT P6SM VCTS SCT030CB SCT200
     FM220100 18004KT P6SM BKN250=



000
FTUS44 KLCH 210700 AAA
TAFLCH
TAF AMD
KLCH 210754Z 2108/2206 VRB04KT P6SM VCSH SCT020 SCT060 SCT250
     FM211500 17008KT P6SM VCTS SCT030CB SCT200
     FM220100 18004KT P6SM BKN250=



000
FTUS44 KLCH 210500
TAFAEX
TAF
KAEX 210520Z 2106/2206 17003KT P6SM SCT250
      TEMPO 2111/2114 4SM BR
     FM211800 17008KT P6SM VCTS SCT040CB SCT200
     FM220200 16003KT P6SM FEW250=



000
FTUS44 KLCH 210500
TAFLFT
TAF
KLFT 210520Z 2106/2206 VRB03KT P6SM SCT250
     FM211500 19006KT P6SM VCTS SCT030CB SCT200
     FM220100 20003KT P6SM SCT250=



000
FTUS44 KLCH 210500
TAFBPT
TAF
KBPT 210520Z 2106/2206 17003KT P6SM SCT250
     FM211500 18008KT P6SM VCTS SCT030CB SCT200
     FM220100 18004KT P6SM BKN250=



000
FTUS44 KLCH 210500
TAFARA
TAF
KARA 210520Z 2106/2206 VRB03KT P6SM SCT250
     FM211500 18007KT P6SM VCTS SCT030CB SCT200
     FM220100 20003KT P6SM SCT250=



000
FTUS44 KLCH 210500
TAFLCH
TAF
KLCH 210520Z 2106/2206 17003KT P6SM SCT250
     FM211500 17008KT P6SM VCTS SCT030CB SCT200
     FM220100 18004KT P6SM BKN250=



000
FTUS44 KLCH 202300
TAFBPT
TAF
KBPT 202328Z 2100/2124 15003KT P6SM VCTS FEW025CB SCT250
     FM210200 15003KT P6SM SCT250
     FM211500 18007KT P6SM VCTS SCT030CB SCT200=



000
FTUS44 KLCH 202300
TAFARA
TAF
KARA 202328Z 2100/2124 VRB03KT P6SM VCTS FEW025CB SCT250
     FM210200 VRB03KT P6SM SCT250
     FM211500 18007KT P6SM VCTS SCT030CB SCT200=



000
FTUS44 KLCH 202300
TAFAEX
TAF
KAEX 202328Z 2100/2124 17006KT P6SM VCTS FEW050CB SCT200
     FM210200 17003KT P6SM SCT250
     FM210800 17003KT 3SM BR SCT250
     FM211400 17008KT P6SM VCTS SCT040CB SCT200=



000
FTUS44 KLCH 202300
TAFLFT
TAF
KLFT 202328Z 2100/2124 VRB03KT P6SM VCTS FEW025CB SCT250
     FM210200 VRB03KT P6SM SCT250
     FM211500 18007KT P6SM VCTS SCT030CB SCT200=



000
FTUS44 KLCH 202300
TAFLCH
TAF
KLCH 202328Z 2100/2124 15003KT P6SM VCTS FEW025CB SCT250
     FM210200 15003KT P6SM SCT250
     FM211500 18007KT P6SM VCTS SCT030CB SCT200=



000
FTUS44 KLCH 201900 AAA
TAFLCH
TAF AMD
KLCH 201930Z 2020/2118 19007KT P6SM VCTS SCT030CB SCT050 SCT200
      TEMPO 2020/2022 VRB15G25KT 2SM TSRA BKN030CB OVC050
     FM202300 17003KT P6SM SCT250
     FM211400 18007KT P6SM SCT030 SCT170=



000
FTUS44 KLCH 201900 AAA
TAFBPT
TAF AMD
KBPT 201904Z 2019/2118 17012G18KT P6SM VCSH SCT035
     FM202300 16005KT P6SM FEW045 SCT250
     FM210300 16005KT P6SM BKN035 BKN170
     FM210900 16005KT P6SM BKN030 BKN170
     FM211400 17008KT P6SM SCT035 SCT170=



000
FTUS44 KLCH 201700
TAFLFT
TAF
KLFT 201740Z 2018/2118 18005KT P6SM VCTS SCT035CB SCT060 SCT250
     FM202300 19003KT P6SM SCT250
     FM210900 16004KT P6SM BKN035 BKN200
     FM211400 19005KT P6SM SCT035 SCT180=



000
FTUS44 KLCH 201700
TAFBPT
TAF
KBPT 201740Z 2018/2118 18007KT P6SM VCSH SCT026 BKN035
      TEMPO 2019/2023 VRB12G25KT 1SM +TSRA BKN026CB OVC035
     FM202300 16005KT P6SM FEW045 SCT250
     FM210300 16005KT P6SM BKN035 BKN170
     FM210900 16005KT P6SM BKN030 BKN170
     FM211400 17008KT P6SM SCT035 SCT170=



000
FTUS44 KLCH 201700
TAFLCH
TAF
KLCH 201740Z 2018/2118 19007KT P6SM VCTS SCT030CB SCT200
     FM202300 17003KT P6SM SCT250
     FM211400 18007KT P6SM SCT030 SCT170=



000
FTUS44 KLCH 201700
TAFARA
TAF
KARA 201740Z 2018/2118 19006KT P6SM VCTS SCT035CB SCT250
     FM202300 16003KT P6SM SCT250
     FM210900 16004KT P6SM BKN035 BKN200
     FM211400 18005KT P6SM SCT035 SCT180=



000
FTUS44 KLCH 201700
TAFAEX
TAF
KAEX 201740Z 2018/2118 17007KT P6SM SCT040 SCT250
     FM202000 17007KT P6SM VCTS SCT040CB BKN250
      TEMPO 2021/2023 5SM -TSRA SCT025 BKN040CB
     FM202300 17003KT P6SM SCT220
     FM210800 17003KT 3SM BR FEW100 SCT250
     FM211400 17008KT P6SM SCT040 SCT200=



000
FTUS44 KLCH 201700 AAA
TAFARA
TAF AMD
KARA 201706Z 2017/2112 19006KT P6SM VCSH FEW035 SCT110 SCT250
     FM201800 19006KT P6SM VCTS SCT035CB SCT250
     FM202300 16003KT P6SM SCT250=



000
FTUS44 KLCH 201400 AAA
TAFLCH
TAF AMD
KLCH 201435Z 2015/2112 VRB03KT P6SM FEW025
     FM201600 18008KT P6SM VCSH SCT030 SCT200
     FM201800 18006KT P6SM VCTS SCT030CB SCT200
      TEMPO 2018/2022 VRB15G20KT 3SM -TSRA BKN025CB
     FM202300 18004KT P6SM SCT250=



000
FTUS44 KLCH 201100
TAFLFT
TAF
KLFT 201132Z 2012/2112 20004KT P6SM FEW050
     FM201500 22004KT P6SM FEW250
     FM201800 19005KT P6SM VCTS SCT030 SCT050CB
      TEMPO 2018/2022 VRB18G23KT 5SM -TSRA BKN025CB BKN035
     FM202300 19006KT P6SM SCT250=



000
FTUS44 KLCH 201100
TAFAEX
TAF
KAEX 201132Z 2012/2112 VRB03KT P6SM SKC
      TEMPO 2012/2013 4SM BR
     FM201500 20005KT P6SM FEW030
     FM201800 17006KT P6SM VCTS SCT050CB
      TEMPO 2019/2023 5SM -TSRA BKN025CB
     FM202300 16006KT P6SM BKN120=



000
FTUS44 KLCH 201100
TAFARA
TAF
KARA 201132Z 2012/2112 32005KT P6SM FEW050
     FM201500 22004KT P6SM FEW250
     FM201800 19005KT P6SM VCTS SCT050CB
      TEMPO 2018/2022 VRB15G25KT 5SM -TSRA BKN025CB BKN035
     FM202300 19006KT P6SM SCT250=



000
FTUS44 KLCH 201100
TAFBPT
TAF
KBPT 201132Z 2012/2112 15005KT P6SM FEW035
     FM201700 18008KT P6SM VCSH SCT025 SCT045
      TEMPO 2018/2022 VRB12G18KT 3SM -TSRA BKN025CB
     FM202300 18009KT P6SM FEW045 BKN250=



000
FTUS44 KLCH 201100
TAFLCH
TAF
KLCH 201132Z 2012/2112 18005KT P6SM FEW035
      TEMPO 2012/2013 5SM BR
     FM201700 18006KT P6SM VCSH SCT025 SCT050 BKN100
      TEMPO 2018/2022 VRB15G20KT 3SM -TSRA BKN025CB
     FM202300 18009KT P6SM BKN250=



000
FTUS44 KLCH 192300
TAFAEX
TAF
KAEX 192320Z 2000/2024 17003KT P6SM SKC
      TEMPO 2009/2013 4SM BR
     FM201500 20005KT P6SM FEW030
     FM201800 17006KT P6SM VCTS SCT050CB
      TEMPO 2019/2023 5SM -TSRA BKN025CB
     FM202300 16006KT P6SM BKN120=



000
FTUS44 KLCH 192300
TAFBPT
TAF
KBPT 192320Z 2000/2024 12007KT P6SM SKC
     FM201500 18008KT P6SM VCTS SCT025CB
      TEMPO 2018/2022 6SM -TSRA BKN025CB
     FM202300 18009KT P6SM BKN250=



000
FTUS44 KLCH 192300
TAFLFT
TAF
KLFT 192320Z 2000/2024 20004KT P6SM FEW050
     FM201500 22004KT P6SM FEW250
     FM201800 19005KT P6SM VCTS SCT050CB
      TEMPO 2018/2022 5SM -TSRA BKN025CB
     FM202300 19006KT P6SM SCT250=



000
FTUS44 KLCH 192300
TAFLCH
TAF
KLCH 192320Z 2000/2024 29004KT P6SM SKC
      TEMPO 2009/2013 5SM BR
     FM201500 18006KT P6SM VCTS SCT025CB
      TEMPO 2018/2022 6SM -TSRA BKN025CB
     FM202300 18009KT P6SM BKN250=



000
FTUS44 KLCH 192300
TAFARA
TAF
KARA 192320Z 2000/2024 32005KT P6SM SKC
      TEMPO 2009/2012 5SM BR
     FM201500 22004KT P6SM FEW250
     FM201800 19005KT P6SM VCTS SCT050CB
      TEMPO 2018/2022 5SM -TSRA BKN025CB
     FM202300 19006KT P6SM SCT250=



000
FTUS44 KLCH 192200 AAB
TAFAEX
TAF AMD
KAEX 192241Z 1923/2018 18006KT P6SM BKN120
     FM200000 VRB03KT P6SM FEW050 SCT250
      TEMPO 2009/2013 4SM BR
     FM201500 20005KT P6SM FEW030=



000
FTUS44 KLCH 192000 AAC
TAFLCH
TAF AMD
KLCH 192052Z 1921/2018 12008KT P6SM -SHRA VCTS BKN050CB
      TEMPO 1921/1922 3SM TSRA BKN035CB
     FM192200 21009KT P6SM VCSH SCT035 BKN150
     FM200000 17004KT P6SM FEW040 SCT250
      TEMPO 2009/2013 5SM HZ
     FM201500 18006KT P6SM VCSH SCT025=



000
FTUS44 KLCH 192000 AAB
TAFLFT
TAF AMD
KLFT 192050Z 1921/2018 21005KT P6SM -TSRA SCT040CB OVC120
     FM192200 19009KT P6SM VCTS SCT050CB BKN150
     FM200000 VRB03KT P6SM FEW040 SCT250
     FM201500 19005KT P6SM SCT025=



000
FTUS44 KLCH 192000 AAA
TAFAEX
TAF AMD
KAEX 192044Z 1921/2018 22008KT P6SM VCTS SCT050CB
      TEMPO 1921/1923 VRB12G25KT 3SM TSRA BKN035CB
     FM200000 VRB03KT P6SM FEW050 SCT250
      TEMPO 2009/2013 4SM BR
     FM201500 20005KT P6SM FEW030=



000
FTUS44 KLCH 191900 AAB
TAFLCH
TAF AMD
KLCH 191958Z 1920/2018 06008KT 5SM -SHRA VCTS BKN040CB
      TEMPO 1920/1921 2SM TSRA BKN030CB
     FM192200 21009KT P6SM VCSH SCT035 BKN150
     FM200000 17004KT P6SM FEW040 SCT250
      TEMPO 2009/2013 5SM HZ
     FM201500 18006KT P6SM VCSH SCT025=



000
FTUS44 KLCH 191900 AAA
TAFLFT
TAF AMD
KLFT 191923Z 1919/2018 19009KT P6SM VCTS SCT040CB
      TEMPO 1920/1921 VRB15G25KT 3SM TSRA BKN030CB
     FM200000 VRB03KT P6SM FEW040 SCT250
     FM201500 19005KT P6SM SCT025=



000
FTUS44 KLCH 191900 AAA
TAFLCH
TAF AMD
KLCH 191921Z 1919/2018 21009KT P6SM VCTS SCT040CB
      TEMPO 1919/1920 VRB12G25KT 1SM +TSRA SCT010 BKN030CB
     FM200000 17004KT P6SM FEW040 SCT250
      TEMPO 2009/2013 5SM HZ
     FM201500 18006KT P6SM VCSH SCT025=



000
FTUS44 KLCH 191700
TAFAEX
TAF
KAEX 191720Z 1918/2018 22008KT P6SM VCTS SCT050CB
     FM200000 VRB03KT P6SM FEW050 SCT250
      TEMPO 2009/2013 4SM BR
     FM201500 20005KT P6SM FEW030=



000
FTUS44 KLCH 191700
TAFBPT
TAF
KBPT 191720Z 1918/2018 20010KT P6SM VCTS SCT035CB
     FM200000 17005KT P6SM FEW040 SCT250
     FM201500 18008KT P6SM VCSH SCT025=



000
FTUS44 KLCH 191700
TAFARA
TAF
KARA 191720Z 1918/2018 22009KT P6SM VCTS SCT040CB
     FM200000 18005KT P6SM FEW040 SCT250
     FM201500 19006KT P6SM VCSH SCT025=



000
FTUS44 KLCH 191700
TAFLFT
TAF
KLFT 191720Z 1918/2018 19009KT P6SM VCTS SCT040CB
     FM200000 VRB03KT P6SM FEW040 SCT250
     FM201500 19005KT P6SM SCT025=



000
FTUS44 KLCH 191700
TAFLCH
TAF
KLCH 191720Z 1918/2018 21009KT P6SM VCTS SCT040CB
     FM200000 17004KT P6SM FEW040 SCT250
      TEMPO 2009/2013 5SM HZ
     FM201500 18006KT P6SM VCSH SCT025=



000
FTUS44 KLCH 191600 AAB
TAFLCH
TAF AMD
KLCH 191628Z 1916/2012 22007KT 5SM -SHRA VCTS BKN030CB
      TEMPO 1916/1917 VRB15G30KT 1SM +TSRA BKN012CB
     FM191730 19009KT P6SM VCTS SCT040CB
     FM200000 18005KT P6SM FEW040=



000
FTUS44 KLCH 191600 AAA
TAFLCH
TAF AMD
KLCH 191600Z 1916/2012 22007KT P6SM VCTS SCT025CB
      TEMPO 1916/1918 5SM TSRA BKN025CB
     FM191800 19009KT P6SM VCTS SCT040CB
     FM200000 18005KT P6SM FEW040=



    US Dept of Commerce
    National Oceanic and Atmospheric Administration
    National Weather Service
    1325 East West Highway
    Silver Spring, MD 20910
    Page Author: NWS Internet Services Team
Disclaimer
Information Quality
Credits
Glossary
Privacy Policy
Freedom of Information Act (FOIA)
About Us
Career Opportunities